sensor_id;sensor_type;location;lat;lon;timestamp;noise_LAeq;noise_LA_min;noise_LA_max;noise_LA01;noise_LA95
76261;Laerm;65076;52.362;6.588;2024-02-04T00:06:30;43.71;39.40;49.23;;
76261;Laerm;65076;52.362;6.588;2024-02-04T00:14:00;48.70;35.33;64.16;;
76261;Laerm;65076;52.362;6.588;2024-02-04T00:19:05;44.44;36.00;57.85;;
76261;Laerm;65076;52.362;6.588;2024-02-04T00:26:38;52.11;33.66;66.00;;
76261;Laerm;65076;52.362;6.588;2024-02-04T00:34:04;35.53;33.09;43.73;;
76261;Laerm;65076;52.362;6.588;2024-02-04T00:39:04;39.21;33.46;55.23;;
76261;Laerm;65076;52.362;6.588;2024-02-04T00:41:38;34.76;32.76;39.94;;
76261;Laerm;65076;52.362;6.588;2024-02-04T00:46:35;46.60;32.90;62.23;;
76261;Laerm;65076;52.362;6.588;2024-02-04T00:51:35;47.29;33.55;64.69;;
76261;Laerm;65076;52.362;6.588;2024-02-04T00:54:08;50.84;33.25;66.80;;
76261;Laerm;65076;52.362;6.588;2024-02-04T01:01:43;37.32;31.81;45.33;;
76261;Laerm;65076;52.362;6.588;2024-02-04T01:06:43;45.64;32.84;61.80;;
76261;Laerm;65076;52.362;6.588;2024-02-04T01:09:15;39.54;32.62;50.56;;
76261;Laerm;65076;52.362;6.588;2024-02-04T01:14:21;46.17;32.83;62.26;;
76261;Laerm;65076;52.362;6.588;2024-02-04T01:24:27;37.86;33.62;51.30;;
76261;Laerm;65076;52.362;6.588;2024-02-04T01:27:00;36.64;33.84;43.99;;
76261;Laerm;65076;52.362;6.588;2024-02-04T01:32:00;35.24;32.59;51.73;;
76261;Laerm;65076;52.362;6.588;2024-02-04T01:39:37;35.61;33.10;42.42;;
76261;Laerm;65076;52.362;6.588;2024-02-04T01:44:37;34.51;32.44;36.76;;
76261;Laerm;65076;52.362;6.588;2024-02-04T01:47:09;35.46;32.71;52.22;;
76261;Laerm;65076;52.362;6.588;2024-02-04T01:49:44;35.71;33.19;43.66;;
76261;Laerm;65076;52.362;6.588;2024-02-04T01:54:47;34.93;32.04;38.95;;
76261;Laerm;65076;52.362;6.588;2024-02-04T02:07:14;37.47;32.57;49.90;;
76261;Laerm;65076;52.362;6.588;2024-02-04T02:09:52;36.48;33.73;48.19;;
76261;Laerm;65076;52.362;6.588;2024-02-04T02:17:29;36.63;32.86;44.12;;
76261;Laerm;65076;52.362;6.588;2024-02-04T02:22:42;36.17;33.16;42.97;;
76261;Laerm;65076;52.362;6.588;2024-02-04T02:27:50;38.49;34.26;51.85;;
76261;Laerm;65076;52.362;6.588;2024-02-04T02:32:50;37.40;33.47;52.19;;
76261;Laerm;65076;52.362;6.588;2024-02-04T02:35:22;39.39;35.18;47.12;;
76261;Laerm;65076;52.362;6.588;2024-02-04T02:43:01;40.22;32.96;56.74;;
76261;Laerm;65076;52.362;6.588;2024-02-04T02:50:33;39.80;34.24;51.59;;
76261;Laerm;65076;52.362;6.588;2024-02-04T02:58:08;36.20;33.77;42.70;;
76261;Laerm;65076;52.362;6.588;2024-02-04T03:03:08;42.36;33.07;53.72;;
76261;Laerm;65076;52.362;6.588;2024-02-04T03:05:40;46.52;32.82;63.32;;
76261;Laerm;65076;52.362;6.588;2024-02-04T03:15:43;36.84;32.74;47.25;;
76261;Laerm;65076;52.362;6.588;2024-02-04T03:20:43;46.71;32.59;63.28;;
76261;Laerm;65076;52.362;6.588;2024-02-04T03:23:15;39.39;32.70;51.11;;
76261;Laerm;65076;52.362;6.588;2024-02-04T03:33:18;51.23;33.58;68.40;;
76261;Laerm;65076;52.362;6.588;2024-02-04T03:38:18;38.59;33.33;50.24;;
76261;Laerm;65076;52.362;6.588;2024-02-04T03:40:50;35.14;32.61;42.44;;
76261;Laerm;65076;52.362;6.588;2024-02-04T03:48:25;37.21;33.77;48.03;;
76261;Laerm;65076;52.362;6.588;2024-02-04T03:53:25;38.84;33.21;49.92;;
76261;Laerm;65076;52.362;6.588;2024-02-04T03:58:25;38.89;32.83;51.76;;
76261;Laerm;65076;52.362;6.588;2024-02-04T04:00:59;34.83;32.32;38.45;;
76261;Laerm;65076;52.362;6.588;2024-02-04T04:08:33;36.29;33.43;41.07;;
76261;Laerm;65076;52.362;6.588;2024-02-04T04:13:37;38.72;33.69;50.05;;
76261;Laerm;65076;52.362;6.588;2024-02-04T04:16:07;35.77;33.45;45.39;;
76261;Laerm;65076;52.362;6.588;2024-02-04T04:23:43;48.99;33.31;65.76;;
76261;Laerm;65076;52.362;6.588;2024-02-04T04:26:15;35.70;33.14;40.08;;
76261;Laerm;65076;52.362;6.588;2024-02-04T04:28:47;37.00;32.60;53.57;;
76261;Laerm;65076;52.362;6.588;2024-02-04T04:36:21;38.58;32.59;60.47;;
76261;Laerm;65076;52.362;6.588;2024-02-04T04:43:52;34.86;32.33;41.39;;
76261;Laerm;65076;52.362;6.588;2024-02-04T04:48:50;36.85;33.06;49.31;;
76261;Laerm;65076;52.362;6.588;2024-02-04T04:56:22;35.48;32.69;44.41;;
76261;Laerm;65076;52.362;6.588;2024-02-04T04:58:57;34.95;32.27;43.52;;
76261;Laerm;65076;52.362;6.588;2024-02-04T05:06:29;38.82;33.61;49.57;;
76261;Laerm;65076;52.362;6.588;2024-02-04T05:11:29;36.23;33.02;42.23;;
76261;Laerm;65076;52.362;6.588;2024-02-04T05:14:03;36.72;33.24;47.62;;
76261;Laerm;65076;52.362;6.588;2024-02-04T05:19:07;41.95;33.75;55.27;;
76261;Laerm;65076;52.362;6.588;2024-02-04T05:26:37;38.41;33.15;48.61;;
76261;Laerm;65076;52.362;6.588;2024-02-04T05:29:12;36.33;33.68;48.57;;
76261;Laerm;65076;52.362;6.588;2024-02-04T05:39:13;41.73;33.35;53.36;;
76261;Laerm;65076;52.362;6.588;2024-02-04T05:41:45;40.12;34.11;54.14;;
76261;Laerm;65076;52.362;6.588;2024-02-04T05:49:20;39.99;34.13;51.66;;
76261;Laerm;65076;52.362;6.588;2024-02-04T05:54:20;38.66;34.10;50.60;;
76261;Laerm;65076;52.362;6.588;2024-02-04T05:56:52;36.76;33.96;42.88;;
76261;Laerm;65076;52.362;6.588;2024-02-04T06:04:25;37.56;33.76;53.55;;
76261;Laerm;65076;52.362;6.588;2024-02-04T06:09:26;46.07;34.74;61.78;;
76261;Laerm;65076;52.362;6.588;2024-02-04T06:14:32;47.56;33.90;65.20;;
76261;Laerm;65076;52.362;6.588;2024-02-04T06:19:39;51.99;34.87;67.61;;
76261;Laerm;65076;52.362;6.588;2024-02-04T06:24:42;44.17;34.45;65.18;;
76261;Laerm;65076;52.362;6.588;2024-02-04T06:29:42;44.30;33.42;58.80;;
76261;Laerm;65076;52.362;6.588;2024-02-04T06:32:14;42.85;35.22;61.95;;
76261;Laerm;65076;52.362;6.588;2024-02-04T06:34:51;40.60;34.49;58.45;;
76261;Laerm;65076;52.362;6.588;2024-02-04T06:44:50;51.10;34.20;64.08;;
76261;Laerm;65076;52.362;6.588;2024-02-04T06:52:20;45.86;34.58;64.70;;
76261;Laerm;65076;52.362;6.588;2024-02-04T06:57:23;50.90;35.71;63.96;;
76261;Laerm;65076;52.362;6.588;2024-02-04T07:02:23;54.21;33.58;71.07;;
76261;Laerm;65076;52.362;6.588;2024-02-04T07:04:55;45.26;34.09;66.11;;
76261;Laerm;65076;52.362;6.588;2024-02-04T07:12:29;62.04;34.18;78.96;;
76261;Laerm;65076;52.362;6.588;2024-02-04T07:17:34;49.09;34.44;65.21;;
76261;Laerm;65076;52.362;6.588;2024-02-04T07:22:32;48.99;35.34;64.64;;
76261;Laerm;65076;52.362;6.588;2024-02-04T07:30:06;62.14;35.54;75.49;;
76261;Laerm;65076;52.362;6.588;2024-02-04T07:35:05;45.07;34.81;59.52;;
76261;Laerm;65076;52.362;6.588;2024-02-04T07:42:36;39.80;35.38;48.88;;
76261;Laerm;65076;52.362;6.588;2024-02-04T07:45:11;48.74;35.17;66.18;;
76261;Laerm;65076;52.362;6.588;2024-02-04T07:52:47;50.95;36.12;65.15;;
76261;Laerm;65076;52.362;6.588;2024-02-04T08:00:19;54.21;37.02;67.49;;
76261;Laerm;65076;52.362;6.588;2024-02-04T08:05:19;52.98;36.80;66.60;;
76261;Laerm;65076;52.362;6.588;2024-02-04T08:07:51;58.61;42.38;77.55;;
76261;Laerm;65076;52.362;6.588;2024-02-04T08:17:58;53.63;38.80;66.87;;
76261;Laerm;65076;52.362;6.588;2024-02-04T08:25:40;51.73;40.39;64.39;;
76261;Laerm;65076;52.362;6.588;2024-02-04T08:33:13;51.34;38.69;65.02;;
76261;Laerm;65076;52.362;6.588;2024-02-04T08:38:14;58.62;39.14;76.72;;
76261;Laerm;65076;52.362;6.588;2024-02-04T08:40:46;61.68;38.74;75.90;;
76261;Laerm;65076;52.362;6.588;2024-02-04T08:48:19;47.16;37.85;60.99;;
76261;Laerm;65076;52.362;6.588;2024-02-04T08:50:51;59.32;38.49;74.00;;
76261;Laerm;65076;52.362;6.588;2024-02-04T08:53:23;55.62;37.34;69.41;;
76261;Laerm;65076;52.362;6.588;2024-02-04T08:55:55;50.45;36.54;64.20;;
76261;Laerm;65076;52.362;6.588;2024-02-04T08:58:27;50.88;36.04;67.64;;
76261;Laerm;65076;52.362;6.588;2024-02-04T09:06:03;50.50;35.58;62.46;;
76261;Laerm;65076;52.362;6.588;2024-02-04T09:13:35;50.19;36.20;65.10;;
76261;Laerm;65076;52.362;6.588;2024-02-04T09:18:36;44.80;35.70;55.31;;
76261;Laerm;65076;52.362;6.588;2024-02-04T09:21:10;61.79;37.72;76.56;;
76261;Laerm;65076;52.362;6.588;2024-02-04T09:28:42;51.22;36.01;65.96;;
76261;Laerm;65076;52.362;6.588;2024-02-04T09:31:12;54.31;39.67;66.56;;
76261;Laerm;65076;52.362;6.588;2024-02-04T09:38:53;57.71;39.29;73.77;;
76261;Laerm;65076;52.362;6.588;2024-02-04T09:43:58;60.40;36.84;74.61;;
76261;Laerm;65076;52.362;6.588;2024-02-04T09:54:05;55.31;39.00;75.43;;
76261;Laerm;65076;52.362;6.588;2024-02-04T10:01:35;55.07;37.92;64.65;;
76261;Laerm;65076;52.362;6.588;2024-02-04T10:04:07;54.01;36.95;64.86;;
76261;Laerm;65076;52.362;6.588;2024-02-04T10:11:41;60.99;36.85;75.63;;
76261;Laerm;65076;52.362;6.588;2024-02-04T10:14:13;50.01;36.73;61.64;;
76261;Laerm;65076;52.362;6.588;2024-02-04T10:16:49;52.31;37.77;62.76;;
76261;Laerm;65076;52.362;6.588;2024-02-04T10:24:21;54.22;36.69;66.58;;
76261;Laerm;65076;52.362;6.588;2024-02-04T10:29:25;46.43;35.97;54.82;;
76261;Laerm;65076;52.362;6.588;2024-02-04T10:32:00;52.96;36.35;66.50;;
76261;Laerm;65076;52.362;6.588;2024-02-04T10:42:02;58.83;37.02;76.45;;
76261;Laerm;65076;52.362;6.588;2024-02-04T10:47:09;51.88;36.57;63.99;;
76261;Laerm;65076;52.362;6.588;2024-02-04T10:52:11;58.46;38.04;73.23;;
76261;Laerm;65076;52.362;6.588;2024-02-04T10:59:41;55.57;39.37;68.01;;
76261;Laerm;65076;52.362;6.588;2024-02-04T11:02:19;53.48;38.87;68.87;;
76261;Laerm;65076;52.362;6.588;2024-02-04T11:09:54;62.12;43.26;75.87;;
76261;Laerm;65076;52.362;6.588;2024-02-04T11:14:58;51.64;38.11;64.48;;
76261;Laerm;65076;52.362;6.588;2024-02-04T11:20:19;59.46;39.96;74.03;;
76261;Laerm;65076;52.362;6.588;2024-02-04T11:23:10;53.50;37.94;64.44;;
76261;Laerm;65076;52.362;6.588;2024-02-04T11:30:48;55.28;43.04;70.48;;
76261;Laerm;65076;52.362;6.588;2024-02-04T11:36:03;52.33;40.79;64.82;;
76261;Laerm;65076;52.362;6.588;2024-02-04T11:43:33;48.55;38.72;60.67;;
76261;Laerm;65076;52.362;6.588;2024-02-04T11:46:05;55.61;41.88;70.61;;
76261;Laerm;65076;52.362;6.588;2024-02-04T11:53:41;55.58;40.30;67.84;;
76261;Laerm;65076;52.362;6.588;2024-02-04T11:58:45;65.79;42.06;83.94;;
76261;Laerm;65076;52.362;6.588;2024-02-04T12:01:17;56.09;43.34;74.08;;
76261;Laerm;65076;52.362;6.588;2024-02-04T12:06:25;53.12;40.43;64.42;;
76261;Laerm;65076;52.362;6.588;2024-02-04T12:14:03;60.62;39.27;76.44;;
76261;Laerm;65076;52.362;6.588;2024-02-04T12:19:03;54.55;38.26;71.46;;
76261;Laerm;65076;52.362;6.588;2024-02-04T12:21:37;59.02;42.18;73.86;;
76261;Laerm;65076;52.362;6.588;2024-02-04T12:29:10;54.23;40.11;63.47;;
76261;Laerm;65076;52.362;6.588;2024-02-04T12:36:42;51.62;39.86;65.25;;
76261;Laerm;65076;52.362;6.588;2024-02-04T12:41:42;61.90;44.07;74.41;;
76261;Laerm;65076;52.362;6.588;2024-02-04T12:46:49;54.69;41.26;65.53;;
76261;Laerm;65076;52.362;6.588;2024-02-04T12:49:22;62.56;42.40;76.34;;
76261;Laerm;65076;52.362;6.588;2024-02-04T12:54:22;54.62;43.38;74.54;;
76261;Laerm;65076;52.362;6.588;2024-02-04T12:56:54;51.50;39.45;62.83;;
76261;Laerm;65076;52.362;6.588;2024-02-04T13:04:37;53.98;39.90;71.00;;
76261;Laerm;65076;52.362;6.588;2024-02-04T13:12:10;55.30;38.92;67.97;;
76261;Laerm;65076;52.362;6.588;2024-02-04T13:19:43;52.53;39.42;66.84;;
76261;Laerm;65076;52.362;6.588;2024-02-04T13:24:43;54.87;39.24;71.59;;
76261;Laerm;65076;52.362;6.588;2024-02-04T13:27:16;53.91;41.10;62.80;;
76261;Laerm;65076;52.362;6.588;2024-02-04T13:32:16;58.14;43.31;70.56;;
76261;Laerm;65076;52.362;6.588;2024-02-04T13:37:20;57.50;41.30;73.09;;
76261;Laerm;65076;52.362;6.588;2024-02-04T13:42:20;52.37;40.09;60.71;;
76261;Laerm;65076;52.362;6.588;2024-02-04T13:44:52;52.73;39.96;62.29;;
76261;Laerm;65076;52.362;6.588;2024-02-04T13:52:27;59.21;41.97;74.64;;
76261;Laerm;65076;52.362;6.588;2024-02-04T13:57:34;52.14;40.04;63.02;;
76261;Laerm;65076;52.362;6.588;2024-02-04T14:02:40;53.03;40.49;63.87;;
76261;Laerm;65076;52.362;6.588;2024-02-04T14:15:10;51.81;38.11;63.51;;
76261;Laerm;65076;52.362;6.588;2024-02-04T14:20:13;59.56;40.31;77.56;;
76261;Laerm;65076;52.362;6.588;2024-02-04T14:22:46;55.66;43.13;67.40;;
76261;Laerm;65076;52.362;6.588;2024-02-04T14:32:48;59.05;42.11;70.48;;
76261;Laerm;65076;52.362;6.588;2024-02-04T14:37:49;57.84;37.86;76.09;;
76261;Laerm;65076;52.362;6.588;2024-02-04T14:40:22;51.53;38.75;64.70;;
76261;Laerm;65076;52.362;6.588;2024-02-04T14:50:23;56.04;38.90;66.37;;
76261;Laerm;65076;52.362;6.588;2024-02-04T15:02:54;55.74;39.31;66.46;;
76261;Laerm;65076;52.362;6.588;2024-02-04T15:07:56;56.97;39.42;74.79;;
76261;Laerm;65076;52.362;6.588;2024-02-04T15:12:57;56.63;37.76;67.68;;
76261;Laerm;65076;52.362;6.588;2024-02-04T15:15:30;55.22;38.10;66.12;;
76261;Laerm;65076;52.362;6.588;2024-02-04T15:23:07;62.93;39.46;77.06;;
76261;Laerm;65076;52.362;6.588;2024-02-04T15:25:40;57.91;41.73;75.27;;
76261;Laerm;65076;52.362;6.588;2024-02-04T15:28:12;54.10;39.05;65.74;;
76261;Laerm;65076;52.362;6.588;2024-02-04T15:35:43;54.68;38.63;65.48;;
76261;Laerm;65076;52.362;6.588;2024-02-04T15:40:49;60.32;42.53;78.02;;
76261;Laerm;65076;52.362;6.588;2024-02-04T15:45:50;54.09;39.86;69.01;;
76261;Laerm;65076;52.362;6.588;2024-02-04T15:53:19;55.81;41.28;66.35;;
76261;Laerm;65076;52.362;6.588;2024-02-04T15:55:56;54.72;42.58;64.06;;
76261;Laerm;65076;52.362;6.588;2024-02-04T16:03:27;56.93;41.07;69.47;;
76261;Laerm;65076;52.362;6.588;2024-02-04T16:08:32;60.75;46.71;73.89;;
76261;Laerm;65076;52.362;6.588;2024-02-04T16:11:13;67.04;40.71;79.17;;
76261;Laerm;65076;52.362;6.588;2024-02-04T16:18:45;54.07;38.80;66.52;;
76261;Laerm;65076;52.362;6.588;2024-02-04T16:26:21;57.11;41.39;66.72;;
76261;Laerm;65076;52.362;6.588;2024-02-04T16:33:50;52.91;38.23;67.60;;
76261;Laerm;65076;52.362;6.588;2024-02-04T16:38:51;59.10;40.97;73.28;;
76261;Laerm;65076;52.362;6.588;2024-02-04T16:41:25;59.57;42.22;74.45;;
76261;Laerm;65076;52.362;6.588;2024-02-04T16:48:58;57.87;44.45;66.81;;
76261;Laerm;65076;52.362;6.588;2024-02-04T16:56:30;53.04;38.55;68.38;;
76261;Laerm;65076;52.362;6.588;2024-02-04T17:01:34;56.69;41.92;66.40;;
76261;Laerm;65076;52.362;6.588;2024-02-04T17:11:46;61.42;39.78;76.55;;
76261;Laerm;65076;52.362;6.588;2024-02-04T17:21:46;61.90;40.40;76.06;;
76261;Laerm;65076;52.362;6.588;2024-02-04T17:26:53;54.23;40.83;65.77;;
76261;Laerm;65076;52.362;6.588;2024-02-04T17:29:26;56.45;39.89;65.82;;
76261;Laerm;65076;52.362;6.588;2024-02-04T17:32:01;57.29;44.25;67.80;;
76261;Laerm;65076;52.362;6.588;2024-02-04T17:39:38;55.62;39.36;70.59;;
76261;Laerm;65076;52.362;6.588;2024-02-04T17:44:41;56.74;39.53;69.59;;
76261;Laerm;65076;52.362;6.588;2024-02-04T17:47:13;52.68;39.77;64.30;;
76261;Laerm;65076;52.362;6.588;2024-02-04T17:49:45;54.32;39.14;70.36;;
76261;Laerm;65076;52.362;6.588;2024-02-04T17:57:22;56.83;40.40;68.33;;
76261;Laerm;65076;52.362;6.588;2024-02-04T18:02:27;52.19;39.05;66.89;;
76261;Laerm;65076;52.362;6.588;2024-02-04T18:07:31;58.86;42.83;76.41;;
76261;Laerm;65076;52.362;6.588;2024-02-04T18:12:31;59.16;40.56;75.18;;
76261;Laerm;65076;52.362;6.588;2024-02-04T18:15:05;50.15;37.81;64.48;;
76261;Laerm;65076;52.362;6.588;2024-02-04T18:20:15;58.86;40.21;76.58;;
76261;Laerm;65076;52.362;6.588;2024-02-04T18:30:20;57.28;42.09;67.37;;
76261;Laerm;65076;52.362;6.588;2024-02-04T18:40:20;65.27;40.21;78.34;;
76261;Laerm;65076;52.362;6.588;2024-02-04T18:45:21;52.49;39.00;62.87;;
76261;Laerm;65076;52.362;6.588;2024-02-04T18:47:53;52.29;39.29;64.34;;
76261;Laerm;65076;52.362;6.588;2024-02-04T18:58:14;59.26;38.82;75.73;;
76261;Laerm;65076;52.362;6.588;2024-02-04T19:05:47;53.47;38.98;66.18;;
76261;Laerm;65076;52.362;6.588;2024-02-04T19:10:46;60.79;38.32;76.20;;
76261;Laerm;65076;52.362;6.588;2024-02-04T19:13:21;55.64;40.75;68.43;;
76261;Laerm;65076;52.362;6.588;2024-02-04T19:18:22;54.26;39.90;65.49;;
76261;Laerm;65076;52.362;6.588;2024-02-04T19:20:54;57.08;39.08;73.86;;
76261;Laerm;65076;52.362;6.588;2024-02-04T19:26:08;54.79;39.46;66.66;;
76261;Laerm;65076;52.362;6.588;2024-02-04T19:31:13;53.14;39.28;66.63;;
76261;Laerm;65076;52.362;6.588;2024-02-04T19:33:45;55.24;39.31;65.63;;
76261;Laerm;65076;52.362;6.588;2024-02-04T19:36:21;52.78;41.55;63.10;;
76261;Laerm;65076;52.362;6.588;2024-02-04T19:46:27;49.55;37.19;63.95;;
76261;Laerm;65076;52.362;6.588;2024-02-04T19:51:27;46.32;36.25;61.74;;
76261;Laerm;65076;52.362;6.588;2024-02-04T19:56:28;50.57;39.08;64.13;;
76261;Laerm;65076;52.362;6.588;2024-02-04T19:59:00;54.95;39.30;67.95;;
76261;Laerm;65076;52.362;6.588;2024-02-04T20:06:43;45.81;37.40;60.06;;
76261;Laerm;65076;52.362;6.588;2024-02-04T20:11:44;59.33;38.20;75.13;;
76261;Laerm;65076;52.362;6.588;2024-02-04T20:16:48;52.54;37.45;63.40;;
76261;Laerm;65076;52.362;6.588;2024-02-04T20:21:54;49.62;36.86;65.58;;
76261;Laerm;65076;52.362;6.588;2024-02-04T20:26:54;44.57;36.11;56.67;;
76261;Laerm;65076;52.362;6.588;2024-02-04T20:29:24;46.81;37.78;61.65;;
76261;Laerm;65076;52.362;6.588;2024-02-04T20:39:29;58.51;40.02;74.18;;
76261;Laerm;65076;52.362;6.588;2024-02-04T20:46:57;47.43;36.12;62.77;;
76261;Laerm;65076;52.362;6.588;2024-02-04T20:49:32;50.97;37.73;72.02;;
76261;Laerm;65076;52.362;6.588;2024-02-04T20:57:07;48.52;38.33;63.41;;
76261;Laerm;65076;52.362;6.588;2024-02-04T20:59:39;54.79;41.30;68.78;;
76261;Laerm;65076;52.362;6.588;2024-02-04T21:02:12;47.80;38.40;61.87;;
76261;Laerm;65076;52.362;6.588;2024-02-04T21:12:15;60.20;37.52;78.27;;
76261;Laerm;65076;52.362;6.588;2024-02-04T21:17:16;45.56;37.05;62.41;;
76261;Laerm;65076;52.362;6.588;2024-02-04T21:22:17;59.84;38.20;76.82;;
76261;Laerm;65076;52.362;6.588;2024-02-04T21:24:53;51.06;38.90;65.88;;
76261;Laerm;65076;52.362;6.588;2024-02-04T21:32:28;54.82;39.26;69.78;;
76261;Laerm;65076;52.362;6.588;2024-02-04T21:37:28;59.43;38.85;76.16;;
76261;Laerm;65076;52.362;6.588;2024-02-04T21:40:04;60.67;41.44;75.79;;
76261;Laerm;65076;52.362;6.588;2024-02-04T21:47:41;40.79;36.35;51.93;;
76261;Laerm;65076;52.362;6.588;2024-02-04T21:52:41;60.93;40.27;77.33;;
76261;Laerm;65076;52.362;6.588;2024-02-04T21:55:16;51.13;37.75;66.88;;
76261;Laerm;65076;52.362;6.588;2024-02-04T22:05:21;67.68;38.83;79.22;;
76261;Laerm;65076;52.362;6.588;2024-02-04T22:08:00;57.92;37.20;76.30;;
76261;Laerm;65076;52.362;6.588;2024-02-04T22:13:01;44.56;36.74;60.11;;
76261;Laerm;65076;52.362;6.588;2024-02-04T22:18:01;48.62;37.93;63.09;;
76261;Laerm;65076;52.362;6.588;2024-02-04T22:20:33;51.45;37.13;65.30;;
76261;Laerm;65076;52.362;6.588;2024-02-04T22:28:08;46.36;37.13;59.34;;
76261;Laerm;65076;52.362;6.588;2024-02-04T22:33:08;44.69;36.64;59.24;;
76261;Laerm;65076;52.362;6.588;2024-02-04T22:35:40;42.73;35.44;57.86;;
76261;Laerm;65076;52.362;6.588;2024-02-04T22:43:21;46.12;37.20;61.36;;
76261;Laerm;65076;52.362;6.588;2024-02-04T22:48:21;45.09;36.70;61.91;;
76261;Laerm;65076;52.362;6.588;2024-02-04T22:50:53;58.75;37.81;73.71;;
76261;Laerm;65076;52.362;6.588;2024-02-04T22:58:28;44.75;35.82;60.28;;
76261;Laerm;65076;52.362;6.588;2024-02-04T23:06:00;47.51;40.12;61.68;;
76261;Laerm;65076;52.362;6.588;2024-02-04T23:11:03;53.46;38.74;68.20;;
76261;Laerm;65076;52.362;6.588;2024-02-04T23:13:38;51.85;40.43;64.79;;
76261;Laerm;65076;52.362;6.588;2024-02-04T23:16:10;49.72;40.31;61.08;;
76261;Laerm;65076;52.362;6.588;2024-02-04T23:26:14;57.43;40.57;74.45;;
76261;Laerm;65076;52.362;6.588;2024-02-04T23:33:46;51.54;41.30;72.07;;
76261;Laerm;65076;52.362;6.588;2024-02-04T23:38:46;49.49;38.22;69.37;;
76261;Laerm;65076;52.362;6.588;2024-02-04T23:41:18;41.94;35.56;59.15;;
76261;Laerm;65076;52.362;6.588;2024-02-04T23:48:55;47.15;36.49;64.94;;
76261;Laerm;65076;52.362;6.588;2024-02-04T23:56:27;45.48;36.27;56.33;;
